createdAt,value
2023-01-11T09:30:39.165Z,88.91
2023-01-11T09:32:44.116Z,88.67
2023-01-11T09:34:49.779Z,88.79
2023-01-11T09:36:52.947Z,88.86
2023-01-11T09:39:01.768Z,88.77
2023-01-11T09:41:13.023Z,88.64
2023-01-11T09:43:17.564Z,88.75
2023-01-11T09:45:23.370Z,88.75
2023-01-11T09:47:36.667Z,88.72
2023-01-11T09:49:44.789Z,88.70
2023-01-11T09:51:49.951Z,88.59
2023-01-11T09:53:54.536Z,88.66
2023-01-11T09:56:02.967Z,88.55
2023-01-11T09:58:21.734Z,88.56
2023-01-11T10:00:33.457Z,88.45
2023-01-11T10:02:53.860Z,88.54
2023-01-11T10:05:28.680Z,88.40
2023-01-11T10:18:22.844Z,88.25
2023-01-11T10:18:49.425Z,88.13
2023-01-11T10:20:56.328Z,88.16
2023-01-11T10:23:06.417Z,88.17
2023-01-11T10:25:18.857Z,88.17
2023-01-11T10:27:27.698Z,87.95
2023-01-11T10:29:59.557Z,87.94
2023-01-11T10:32:33.936Z,88.01
2023-01-11T10:34:59.696Z,87.83
2023-01-11T10:37:23.874Z,87.86
2023-01-11T10:39:51.993Z,87.85
2023-01-11T10:42:07.720Z,87.73
2023-01-11T10:44:19.347Z,87.53
2023-01-11T10:46:25.905Z,87.53
2023-01-11T10:48:33.538Z,87.42
2023-01-11T10:50:46.834Z,87.40
2023-01-11T10:52:56.275Z,87.28
2023-01-11T10:55:02.898Z,87.13
2023-01-11T10:57:18.052Z,86.99
2023-01-11T10:59:41.222Z,86.90
2023-01-11T11:01:54.498Z,86.75
2023-01-11T11:04:10.685Z,86.77
2023-01-11T11:06:25.510Z,86.63
2023-01-11T11:08:32.210Z,86.53
2023-01-11T11:10:46.378Z,86.31
2023-01-11T11:12:59.615Z,86.24
2023-01-11T11:15:11.271Z,86.13
2023-01-11T11:17:18.298Z,85.91
2023-01-11T11:19:26.315Z,86.07
2023-01-11T11:21:36.755Z,85.74
2023-01-11T11:23:40.744Z,85.73
2023-01-11T11:25:49.652Z,85.63
2023-01-11T11:27:56.733Z,85.60
2023-01-11T11:30:00.006Z,85.52
2023-01-11T11:32:03.518Z,85.53
2023-01-11T11:34:08.863Z,85.42
2023-01-11T11:36:14.182Z,85.37
2023-01-11T11:38:24.334Z,85.28
2023-01-11T11:40:33.145Z,85.15
2023-01-11T11:42:36.232Z,84.92
2023-01-11T11:44:39.741Z,84.93
2023-01-11T11:46:56.788Z,84.74
2023-01-11T11:49:13.233Z,84.71
2023-01-11T11:51:22.054Z,84.56
2023-01-11T11:53:33.535Z,84.57
2023-01-11T11:55:37.055Z,84.55
2023-01-11T11:57:42.989Z,84.36
2023-01-11T11:59:49.254Z,84.31
2023-01-11T12:02:00.108Z,84.20
2023-01-11T12:04:05.878Z,84.12
2023-01-11T12:06:09.124Z,84.00
2023-01-11T12:08:16.064Z,84.03
2023-01-11T12:10:23.713Z,83.91
2023-01-11T12:12:29.544Z,83.84
2023-01-11T12:14:35.184Z,83.66
2023-01-11T12:16:41.331Z,83.61
2023-01-11T12:18:44.692Z,83.58
2023-01-11T12:20:48.869Z,83.66
2023-01-11T12:23:18.114Z,83.52
2023-01-11T12:25:25.228Z,83.32
2023-01-11T12:27:39.718Z,83.44
2023-01-11T12:29:54.050Z,83.20
2023-01-11T12:32:11.079Z,83.13
2023-01-11T12:34:31.943Z,83.05
2023-01-11T12:36:44.689Z,83.17
2023-01-11T12:39:02.890Z,83.14
2023-01-11T12:41:41.978Z,83.08
2023-01-11T12:44:05.257Z,83.15
2023-01-11T12:46:21.338Z,83.08
2023-01-11T12:48:39.628Z,83.00
2023-01-11T12:50:59.277Z,82.93
2023-01-11T12:53:17.212Z,82.86
2023-01-11T12:55:34.180Z,82.78
2023-01-11T12:57:51.192Z,82.79
2023-01-11T13:00:21.594Z,82.87
2023-01-11T13:02:43.484Z,82.74
2023-01-11T13:04:53.691Z,82.68
2023-01-11T13:07:04.699Z,82.79
2023-01-11T13:09:17.697Z,82.71
2023-01-11T13:11:36.550Z,82.48
2023-01-11T13:13:53.085Z,82.40
2023-01-11T13:16:02.635Z,82.40
2023-01-11T13:18:18.847Z,82.22
2023-01-11T13:20:34.103Z,82.20
2023-01-11T13:22:41.521Z,82.18
2023-01-11T13:24:48.912Z,81.74
2023-01-11T13:26:54.046Z,81.13
2023-01-11T13:29:03.387Z,80.05
2023-01-11T13:31:10.587Z,78.93
2023-01-11T13:33:19.640Z,77.61
2023-01-11T13:35:33.097Z,76.88
2023-01-11T13:37:44.145Z,75.04
2023-01-11T13:39:54.326Z,74.12
2023-01-11T13:42:03.293Z,74.07
2023-01-11T13:44:14.269Z,73.33
2023-01-11T13:46:23.471Z,73.45
2023-01-11T13:48:29.736Z,73.58
2023-01-11T13:50:38.598Z,73.15
2023-01-11T13:52:51.249Z,72.97
2023-01-11T13:54:59.664Z,72.99
2023-01-11T13:57:07.830Z,73.08
2023-01-11T13:59:17.763Z,73.11
2023-01-11T14:01:25.205Z,73.34
2023-01-11T14:03:32.248Z,73.58
2023-01-11T14:05:44.971Z,73.94
2023-01-11T14:08:12.770Z,74.24
2023-01-11T14:10:32.214Z,74.26
2023-01-11T14:12:51.580Z,74.48
2023-01-11T14:15:08.485Z,74.88
2023-01-11T14:17:32.896Z,75.16
2023-01-11T14:19:44.528Z,75.28
2023-01-11T14:21:58.557Z,75.23
2023-01-11T14:24:03.592Z,75.40
2023-01-11T14:26:50.819Z,75.39
2023-01-11T14:29:10.095Z,75.60
2023-01-11T14:31:40.221Z,75.65
2023-01-11T14:34:04.745Z,75.74
2023-01-11T14:36:35.260Z,75.65
2023-01-11T14:39:01.688Z,75.83
2023-01-11T14:41:26.311Z,75.61
2023-01-11T14:43:48.414Z,75.52
2023-01-11T14:46:11.082Z,75.67
2023-01-11T14:48:25.616Z,75.82
2023-01-11T14:50:42.713Z,75.84
2023-01-11T14:52:47.248Z,75.93
2023-01-11T14:54:54.028Z,75.87
2023-01-11T14:56:58.244Z,76.14
2023-01-11T14:59:06.234Z,76.19
2023-01-11T15:01:11.917Z,75.97
2023-01-11T15:03:39.623Z,76.05
2023-01-11T15:05:47.756Z,76.20
2023-01-11T15:07:51.808Z,76.12
2023-01-11T15:09:55.191Z,76.15
2023-01-11T15:12:12.720Z,76.17
2023-01-11T15:14:28.190Z,76.34
2023-01-11T15:16:50.843Z,76.26
2023-01-11T15:18:56.026Z,76.46
2023-01-11T15:21:05.246Z,76.60
2023-01-11T15:23:08.307Z,76.72
2023-01-11T15:25:22.682Z,76.77
2023-01-11T15:27:27.558Z,77.10
2023-01-11T15:29:32.879Z,77.14
2023-01-11T15:31:39.991Z,77.17
2023-01-11T15:33:47.977Z,77.32
2023-01-11T15:36:04.146Z,77.46
2023-01-11T15:38:16.577Z,77.49
2023-01-11T15:40:21.731Z,77.76
2023-01-11T15:42:49.618Z,78.00
2023-01-11T15:45:17.336Z,77.91
2023-01-11T15:47:36.892Z,78.20
2023-01-11T15:50:07.091Z,78.14
2023-01-11T15:52:37.383Z,78.48
2023-01-11T15:55:09.374Z,78.50
2023-01-11T15:57:50.387Z,78.55
2023-01-11T16:00:29.968Z,79.03
2023-01-11T16:03:09.850Z,79.13
2023-01-11T16:05:19.500Z,79.18
2023-01-11T16:07:34.774Z,79.42
2023-01-11T16:10:14.793Z,79.36
2023-01-11T16:12:46.588Z,79.62
2023-01-11T16:15:05.558Z,79.64
2023-01-11T16:17:13.922Z,79.78
2023-01-11T16:19:20.443Z,79.63
2023-01-11T16:21:32.635Z,79.80
2023-01-11T16:23:37.163Z,79.78
2023-01-11T16:25:42.873Z,79.78
2023-01-11T16:27:53.602Z,79.74
2023-01-11T16:29:57.229Z,79.70
2023-01-11T16:32:02.444Z,79.73
2023-01-11T16:34:08.121Z,79.91
2023-01-11T16:36:14.316Z,79.95
2023-01-11T16:38:20.360Z,79.71
2023-01-11T16:40:29.897Z,79.78
2023-01-11T16:42:36.909Z,79.78
2023-01-11T16:44:46.049Z,79.79
2023-01-11T16:47:17.057Z,79.70
2023-01-11T16:49:20.928Z,79.70
2023-01-11T16:51:24.011Z,79.65
2023-01-11T16:53:29.328Z,79.73
2023-01-11T16:55:37.821Z,79.75
2023-01-11T16:57:45.198Z,79.71
2023-01-11T17:00:01.735Z,79.74
2023-01-11T17:02:27.620Z,79.94
2023-01-11T17:04:32.869Z,80.02
2023-01-11T17:06:36.228Z,80.20
2023-01-11T17:08:40.918Z,80.27
2023-01-11T17:10:45.439Z,80.27
2023-01-11T17:13:06.336Z,80.37
2023-01-11T17:15:23.120Z,80.48
2023-01-11T17:17:27.316Z,80.48
2023-01-11T17:19:32.821Z,80.84
2023-01-11T17:21:36.415Z,80.69
2023-01-11T17:23:47.089Z,80.70
2023-01-11T17:25:56.678Z,80.83
2023-01-11T17:28:03.793Z,80.89
2023-01-11T17:30:16.752Z,80.85
2023-01-11T17:32:25.377Z,80.90
2023-01-11T17:34:32.254Z,80.84
2023-01-11T17:36:37.109Z,81.09
2023-01-11T17:38:43.317Z,81.04
2023-01-11T17:40:46.898Z,81.00
2023-01-11T17:43:10.075Z,80.77
2023-01-11T17:45:21.227Z,80.93
2023-01-11T17:47:25.018Z,80.94
2023-01-11T17:49:28.275Z,80.87
2023-01-11T17:51:34.627Z,80.72
2023-01-11T17:53:40.029Z,80.74
2023-01-11T17:55:51.216Z,80.82
2023-01-11T17:58:19.719Z,80.65
2023-01-11T18:00:27.076Z,80.76
2023-01-11T18:02:30.753Z,80.51
2023-01-11T18:04:33.938Z,80.77
2023-01-11T18:06:40.809Z,80.58
2023-01-11T18:08:49.068Z,80.59
2023-01-11T18:10:56.085Z,80.52
2023-01-11T18:13:01.041Z,80.73
2023-01-11T18:15:07.770Z,80.74
2023-01-11T18:17:31.374Z,80.62
2023-01-11T18:19:36.583Z,80.55
2023-01-11T18:21:42.710Z,80.66
2023-01-11T18:23:45.817Z,80.89
2023-01-11T18:25:48.942Z,80.78
2023-01-11T18:27:52.946Z,80.81
2023-01-11T18:29:57.779Z,81.06
2023-01-11T18:32:02.275Z,80.93
2023-01-11T18:34:05.895Z,80.90
2023-01-11T18:36:20.533Z,80.91
2023-01-11T18:38:25.720Z,80.86
2023-01-11T18:40:30.926Z,80.92
2023-01-11T18:42:34.089Z,81.06
2023-01-11T18:44:38.028Z,80.87
2023-01-11T18:46:41.243Z,80.98
2023-01-11T18:48:45.712Z,80.94
2023-01-11T18:50:51.984Z,80.99
2023-01-11T18:52:55.091Z,80.93
2023-01-11T18:54:58.765Z,80.74
2023-01-11T18:57:01.886Z,80.76
2023-01-11T18:59:05.011Z,80.62
2023-01-11T19:01:09.036Z,80.64
2023-01-11T19:05:19.685Z,80.65
2023-01-11T19:07:24.047Z,80.55
2023-01-11T19:09:27.148Z,80.77
2023-01-11T19:11:30.990Z,80.72
2023-01-11T19:13:34.054Z,80.72
2023-01-11T19:15:37.442Z,80.72
2023-01-11T19:17:40.583Z,80.49
2023-01-11T19:19:43.695Z,80.74
2023-01-11T19:21:48.143Z,80.50
2023-01-11T19:23:51.311Z,80.32
2023-01-11T19:25:57.501Z,80.39
2023-01-11T19:28:00.688Z,80.08
2023-01-11T19:30:03.953Z,80.21
2023-01-11T19:32:07.180Z,80.17
2023-01-11T19:34:10.306Z,80.21
2023-01-11T19:36:13.401Z,79.92
2023-01-11T19:38:18.469Z,80.07
2023-01-11T19:40:21.629Z,80.06
2023-01-11T19:42:24.789Z,79.88
2023-01-11T19:44:31.237Z,79.95
2023-01-11T19:46:34.461Z,79.90
2023-01-11T19:48:37.742Z,79.95
2023-01-11T19:50:41.245Z,79.79
2023-01-11T19:52:45.102Z,79.85
2023-01-11T19:54:49.675Z,80.01
2023-01-11T19:56:53.526Z,79.96
2023-01-11T19:58:56.788Z,79.96
2023-01-11T20:01:00.429Z,79.97
2023-01-11T20:03:06.277Z,79.88
2023-01-11T20:05:10.040Z,79.71
2023-01-11T20:07:14.627Z,79.63
2023-01-11T20:09:18.684Z,79.77
2023-01-11T20:11:23.566Z,79.61
2023-01-11T20:13:26.709Z,79.51
2023-01-11T20:15:30.089Z,79.42
2023-01-11T20:17:33.654Z,79.61
2023-01-11T20:19:37.091Z,79.41
2023-01-11T20:21:40.284Z,79.42
2023-01-11T20:23:43.572Z,79.43
2023-01-11T20:25:47.022Z,79.42
2023-01-11T20:27:51.616Z,79.56
2023-01-11T20:29:54.823Z,79.44
2023-01-11T20:32:13.398Z,79.51
2023-01-11T20:34:21.508Z,79.56
2023-01-11T20:36:26.233Z,79.39
2023-01-11T20:38:29.531Z,79.33
2023-01-11T20:40:33.017Z,79.34
2023-01-11T20:42:36.169Z,79.34
2023-01-11T20:44:41.348Z,79.21
2023-01-11T20:46:47.676Z,79.50
2023-01-11T20:48:51.260Z,79.30
2023-01-11T20:50:54.497Z,79.53
2023-01-11T20:52:59.537Z,79.13
2023-01-11T20:55:02.715Z,79.41
2023-01-11T20:57:12.153Z,79.19
2023-01-11T20:59:18.553Z,79.46
2023-01-11T21:01:25.136Z,79.44
2023-01-11T21:03:28.311Z,79.42
2023-01-11T21:05:31.462Z,79.33
2023-01-11T21:07:34.756Z,79.36
2023-01-11T21:09:37.997Z,79.59
2023-01-11T21:11:41.989Z,79.42
2023-01-11T21:13:45.210Z,79.29
2023-01-11T21:15:49.273Z,79.19
2023-01-11T21:17:53.758Z,79.19
2023-01-11T21:19:57.354Z,79.19
2023-01-11T21:22:00.441Z,79.03
2023-01-11T21:24:05.159Z,79.10
2023-01-11T21:26:12.736Z,79.01
2023-01-11T21:28:15.803Z,78.84
2023-01-11T21:30:19.394Z,78.93
2023-01-11T21:32:22.742Z,78.75
2023-01-11T21:34:27.463Z,78.87
2023-01-11T21:36:32.125Z,78.75
2023-01-11T21:38:35.711Z,78.53
2023-01-11T21:40:38.763Z,78.46
2023-01-11T21:42:42.082Z,78.53
2023-01-11T21:44:45.392Z,78.59
2023-01-11T21:46:49.720Z,78.36
2023-01-11T21:48:52.786Z,78.29
2023-01-11T21:50:57.228Z,78.19
2023-01-11T21:53:00.257Z,78.25
2023-01-11T21:55:03.443Z,78.26
2023-01-11T21:57:06.502Z,78.14
2023-01-11T21:59:09.674Z,77.98
2023-01-11T22:01:14.204Z,78.07
2023-01-11T22:03:17.282Z,78.09
2023-01-11T22:05:20.358Z,77.99
2023-01-11T22:07:25.961Z,77.87
2023-01-11T22:09:29.130Z,78.01
2023-01-11T22:11:33.192Z,77.77
2023-01-11T22:13:36.935Z,77.62
2023-01-11T22:15:39.993Z,77.51
2023-01-11T22:17:43.185Z,77.43
2023-01-11T22:19:46.265Z,77.41
2023-01-11T22:21:49.430Z,77.54
2023-01-11T22:23:56.610Z,77.11
2023-01-11T22:26:04.240Z,77.03
2023-01-11T22:28:07.329Z,76.96
2023-01-11T22:30:11.646Z,76.93
2023-01-11T22:32:15.059Z,77.00
2023-01-11T22:34:19.467Z,76.81
2023-01-11T22:36:24.192Z,77.02
2023-01-11T22:38:27.245Z,77.21
2023-01-11T22:40:31.705Z,77.24
2023-01-11T22:42:34.825Z,77.48
2023-01-11T22:44:37.934Z,77.43
2023-01-11T22:46:41.138Z,77.62
2023-01-11T22:48:44.401Z,77.82
2023-01-11T22:50:47.526Z,77.60
2023-01-11T22:52:50.572Z,77.76
2023-01-11T22:54:53.681Z,77.80
2023-01-11T22:56:58.544Z,77.96
2023-01-11T22:59:01.885Z,77.97
2023-01-11T23:01:12.219Z,77.76
2023-01-11T23:03:16.496Z,77.94
2023-01-11T23:05:19.747Z,78.05
2023-01-11T23:07:22.852Z,78.09
2023-01-11T23:09:25.969Z,78.15
2023-01-11T23:11:47.909Z,78.39
2023-01-11T23:13:58.928Z,78.49
2023-01-11T23:16:02.062Z,78.56
2023-01-11T23:18:05.958Z,78.76
2023-01-11T23:20:10.723Z,78.99
2023-01-11T23:22:16.780Z,78.81
2023-01-11T23:24:20.079Z,79.06
2023-01-11T23:26:23.297Z,79.27
2023-01-11T23:28:29.787Z,79.28
2023-01-11T23:30:34.234Z,79.31
2023-01-11T23:32:37.339Z,79.62
2023-01-11T23:34:40.393Z,79.48
2023-01-11T23:36:44.393Z,79.74
2023-01-11T23:38:47.603Z,79.88
2023-01-11T23:41:08.511Z,79.89
2023-01-11T23:43:11.600Z,80.13
2023-01-11T23:45:14.763Z,80.19
2023-01-11T23:47:21.295Z,79.89
2023-01-11T23:49:24.834Z,80.09
2023-01-11T23:51:27.895Z,80.25
2023-01-11T23:53:30.958Z,80.27
2023-01-11T23:55:34.094Z,80.24
2023-01-11T23:57:37.187Z,80.29
2023-01-11T23:59:40.578Z,80.29
